createdAt,value
2022-12-23T00:04:59.101Z,0.04
2022-12-23T00:10:02.548Z,-0.17
2022-12-23T00:15:07.083Z,-0.01
2022-12-23T00:20:12.352Z,-0.13
2022-12-23T00:25:15.463Z,-0.18
2022-12-23T00:30:18.637Z,-0.12
2022-12-23T00:35:21.659Z,-0.28
2022-12-23T00:40:43.015Z,-0.18
2022-12-23T00:45:46.444Z,-0.20
2022-12-23T00:50:53.158Z,-0.25
2022-12-23T00:55:56.273Z,-0.24
2022-12-23T01:01:17.840Z,-0.39
2022-12-23T01:06:20.934Z,-0.38
2022-12-23T01:11:24.576Z,-0.42
2022-12-23T01:16:27.678Z,-0.31
2022-12-23T01:21:30.911Z,-0.07
2022-12-23T01:26:33.984Z,-0.04
2022-12-23T01:31:37.412Z,0.00
2022-12-23T01:36:40.433Z,0.09
2022-12-23T01:42:02.123Z,-0.13
2022-12-23T01:47:13.389Z,-0.50
2022-12-23T01:52:17.260Z,-0.37
2022-12-23T01:57:20.672Z,-0.23
2022-12-23T02:02:42.655Z,-0.51
2022-12-23T02:08:04.959Z,-0.72
2022-12-23T02:13:29.996Z,-0.55
2022-12-23T02:19:13.050Z,-0.46
2022-12-23T02:24:52.992Z,-0.61
2022-12-23T02:30:26.319Z,-0.79
2022-12-23T02:35:32.378Z,-0.72
2022-12-23T02:40:43.916Z,-0.90
2022-12-23T02:46:00.987Z,-0.86
2022-12-23T02:51:06.186Z,-0.92
2022-12-23T02:56:12.590Z,-0.82
2022-12-23T03:01:17.161Z,-0.56
2022-12-23T03:06:25.689Z,-0.50
2022-12-23T03:11:46.071Z,-0.51
2022-12-23T03:17:09.307Z,-0.49
2022-12-23T03:22:15.112Z,-0.42
2022-12-23T03:27:36.998Z,-0.67
2022-12-23T03:32:49.750Z,-0.58
2022-12-23T03:37:55.575Z,-0.55
2022-12-23T03:43:03.616Z,-0.66
2022-12-23T03:48:14.044Z,-0.47
2022-12-23T03:53:32.664Z,-0.75
2022-12-23T03:58:48.311Z,-0.44
2022-12-23T04:04:15.256Z,-0.39
2022-12-23T04:09:22.692Z,-0.50
2022-12-23T04:14:25.831Z,-0.36
2022-12-23T04:19:29.006Z,-0.29
2022-12-23T04:24:32.086Z,-0.48
2022-12-23T04:29:35.278Z,-0.49
2022-12-23T04:34:38.458Z,-0.39
2022-12-23T04:39:41.497Z,-0.41
2022-12-23T04:44:44.703Z,-0.48
2022-12-23T04:49:47.747Z,-0.56
2022-12-23T04:54:50.915Z,-0.76
2022-12-23T04:59:54.002Z,-0.65
2022-12-23T05:04:57.070Z,-0.88
2022-12-23T05:10:02.458Z,-0.74
2022-12-23T05:15:06.934Z,-0.58
2022-12-23T05:20:10.587Z,-0.65
2022-12-23T05:25:13.899Z,-0.55
2022-12-23T05:30:17.080Z,-0.71
2022-12-23T05:35:20.255Z,-0.62
2022-12-23T05:40:27.836Z,-0.81
2022-12-23T05:45:38.300Z,-0.66
2022-12-23T05:50:41.999Z,-0.56
2022-12-23T05:55:45.139Z,-0.69
2022-12-23T06:00:48.295Z,-0.87
2022-12-23T06:05:52.223Z,-0.80
2022-12-23T06:10:55.633Z,-0.62
2022-12-23T06:15:58.730Z,-0.90
2022-12-23T06:21:01.877Z,-0.89
2022-12-23T06:26:05.161Z,-1.00
2022-12-23T06:31:08.302Z,-0.82
2022-12-23T06:36:11.470Z,-1.01
2022-12-23T06:41:14.663Z,-1.00
2022-12-23T06:46:17.779Z,-0.68
2022-12-23T06:51:21.931Z,-0.77
2022-12-23T06:56:25.218Z,-0.76
2022-12-23T07:01:28.481Z,-0.73
2022-12-23T07:06:32.426Z,-0.77
2022-12-23T07:11:35.591Z,-0.81
2022-12-23T07:16:38.795Z,-0.70
2022-12-23T07:21:41.945Z,-0.83
2022-12-23T07:26:45.355Z,-0.88
2022-12-23T07:31:48.549Z,-0.93
2022-12-23T07:37:02.113Z,-0.91
2022-12-23T07:47:28.591Z,-0.89
2022-12-23T07:52:31.688Z,-0.58
2022-12-23T07:57:38.481Z,-0.64
2022-12-23T08:02:42.802Z,-0.45
2022-12-23T08:07:46.120Z,-0.46
2022-12-23T08:12:49.180Z,-0.44
2022-12-23T08:17:52.352Z,-0.12
2022-12-23T08:22:55.704Z,-0.10
2022-12-23T08:27:58.838Z,-0.13
2022-12-23T08:33:01.882Z,0.05
2022-12-23T08:38:04.988Z,-0.16
2022-12-23T08:43:08.310Z,0.06
2022-12-23T08:48:11.415Z,-0.05
2022-12-23T08:53:15.644Z,0.11
2022-12-23T08:58:18.769Z,0.40
2022-12-23T09:08:44.747Z,0.32
2022-12-23T09:13:48.607Z,0.66
2022-12-23T09:18:51.841Z,0.69
2022-12-23T09:23:54.927Z,0.54
2022-12-23T09:28:58.218Z,0.81
2022-12-23T09:34:01.437Z,0.69
2022-12-23T09:39:04.598Z,0.74
2022-12-23T09:44:09.736Z,0.63
2022-12-23T09:49:16.755Z,0.85
2022-12-23T09:54:33.729Z,0.86
2022-12-23T10:00:08.395Z,0.92
2022-12-23T10:05:45.213Z,1.04
2022-12-23T10:11:17.091Z,1.12
2022-12-23T10:16:28.134Z,1.10
2022-12-23T10:21:47.321Z,0.97
2022-12-23T10:27:32.130Z,1.21
2022-12-23T10:32:41.072Z,1.40
2022-12-23T10:37:52.114Z,1.41
2022-12-23T10:43:23.256Z,1.27
2022-12-23T10:48:47.453Z,1.33
2022-12-23T10:53:59.749Z,1.36
2022-12-23T10:59:07.618Z,1.33
2022-12-23T11:04:30.855Z,1.20
2022-12-23T11:15:38.367Z,1.50
2022-12-23T11:20:44.540Z,1.49
2022-12-23T11:25:48.002Z,1.50
2022-12-23T11:30:55.981Z,1.65
2022-12-23T11:36:14.874Z,1.83
2022-12-23T11:41:25.544Z,1.83
2022-12-23T11:46:32.923Z,1.76
2022-12-23T11:51:36.024Z,1.98
2022-12-23T11:56:41.096Z,2.08
2022-12-23T12:01:49.268Z,2.09
2022-12-23T12:06:56.578Z,2.01
2022-12-23T12:12:16.757Z,2.21
2022-12-23T12:17:49.071Z,2.11
2022-12-23T12:23:02.376Z,2.21
2022-12-23T12:28:13.309Z,2.15
2022-12-23T12:33:23.939Z,2.21
2022-12-23T12:38:30.572Z,2.27
2022-12-23T12:43:38.794Z,2.55
2022-12-23T12:48:58.229Z,2.59
2022-12-23T12:54:16.572Z,2.58
2022-12-23T12:59:29.288Z,2.52
2022-12-23T13:04:42.799Z,2.50
2022-12-23T13:10:05.340Z,2.44
2022-12-23T13:15:22.498Z,2.60
2022-12-23T13:20:31.255Z,2.54
2022-12-23T13:25:44.938Z,2.42
2022-12-23T13:31:03.968Z,2.35
2022-12-23T13:36:41.783Z,2.52
2022-12-23T13:41:50.048Z,2.56
2022-12-23T13:47:22.330Z,2.55
2022-12-23T13:52:47.986Z,2.49
2022-12-23T13:58:09.764Z,2.58
2022-12-23T14:03:23.791Z,2.65
2022-12-23T14:08:43.413Z,2.53
2022-12-23T14:13:52.219Z,2.67
2022-12-23T14:19:30.029Z,2.89
2022-12-23T14:24:45.271Z,2.82
2022-12-23T14:30:13.598Z,2.76
2022-12-23T14:35:21.781Z,2.85
2022-12-23T14:40:39.856Z,2.93
2022-12-23T14:45:43.904Z,2.77
2022-12-23T14:50:58.235Z,2.84
2022-12-23T14:56:21.670Z,2.90
2022-12-23T15:01:38.621Z,3.04
2022-12-23T15:06:55.277Z,3.04
2022-12-23T15:12:01.629Z,3.02
2022-12-23T15:17:33.097Z,3.03
2022-12-23T15:22:37.433Z,3.00
2022-12-23T15:28:00.795Z,3.13
2022-12-23T15:33:34.989Z,3.21
2022-12-23T15:38:35.506Z,2.98
2022-12-23T15:43:42.132Z,3.10
2022-12-23T15:48:45.781Z,3.11
2022-12-23T15:53:49.250Z,3.19
2022-12-23T15:58:53.883Z,3.02
2022-12-23T16:03:59.514Z,3.09
2022-12-23T16:09:17.752Z,3.06
2022-12-23T16:14:31.464Z,2.96
2022-12-23T16:25:33.697Z,3.28
2022-12-23T16:30:39.680Z,3.17
2022-12-23T16:35:43.948Z,3.38
2022-12-23T16:40:52.052Z,3.49
2022-12-23T16:45:57.408Z,3.65
2022-12-23T16:51:02.162Z,3.60
2022-12-23T16:56:15.436Z,3.58
2022-12-23T17:01:23.900Z,3.52
2022-12-23T17:06:27.532Z,3.62
2022-12-23T17:11:50.298Z,3.62
2022-12-23T17:16:53.872Z,3.46
2022-12-23T17:22:02.495Z,3.62
2022-12-23T17:27:13.267Z,3.58
2022-12-23T17:32:18.287Z,3.48
2022-12-23T17:37:23.127Z,3.47
2022-12-23T17:47:42.970Z,3.57
2022-12-23T17:52:46.323Z,3.40
2022-12-23T17:57:49.717Z,3.57
2022-12-23T18:02:52.931Z,3.64
2022-12-23T18:08:00.986Z,3.98
2022-12-23T18:13:08.443Z,3.94
2022-12-23T18:18:26.431Z,4.20
2022-12-23T18:23:34.052Z,4.13
2022-12-23T18:28:41.183Z,4.24
2022-12-23T18:33:45.377Z,4.30
2022-12-23T18:38:48.739Z,4.24
2022-12-23T18:43:52.271Z,4.23
2022-12-23T18:48:55.340Z,4.00
2022-12-23T18:53:58.472Z,4.10
2022-12-23T18:59:01.633Z,4.07
2022-12-23T19:04:04.810Z,3.98
2022-12-23T19:09:08.650Z,4.05
2022-12-23T19:14:12.310Z,4.27
2022-12-23T19:19:15.373Z,3.97
2022-12-23T19:24:18.641Z,4.00
2022-12-23T19:29:21.782Z,3.98
2022-12-23T19:34:24.902Z,4.15
2022-12-23T19:39:28.041Z,4.07
2022-12-23T19:44:31.195Z,4.08
2022-12-23T19:49:34.744Z,4.07
2022-12-23T19:54:37.778Z,4.16
2022-12-23T19:59:40.917Z,4.16
2022-12-23T20:10:07.014Z,4.00
2022-12-23T20:15:10.277Z,3.96
2022-12-23T20:20:13.493Z,3.87
2022-12-23T20:25:16.595Z,3.94
2022-12-23T20:30:19.804Z,3.70
2022-12-23T20:35:22.841Z,4.14
2022-12-23T20:40:26.047Z,4.04
2022-12-23T20:45:29.127Z,4.04
2022-12-23T20:50:32.171Z,4.02
2022-12-23T20:55:35.264Z,3.87
2022-12-23T21:00:38.288Z,3.87
2022-12-23T21:05:41.409Z,3.71
2022-12-23T21:10:44.505Z,3.70
2022-12-23T21:15:47.544Z,3.51
2022-12-23T21:26:16.396Z,3.52
2022-12-23T21:31:22.163Z,3.64
2022-12-23T21:36:38.377Z,3.63
2022-12-23T21:41:42.079Z,3.41
2022-12-23T21:46:45.282Z,3.38
2022-12-23T21:51:48.387Z,3.35
2022-12-23T21:56:51.411Z,3.38
2022-12-23T22:01:54.565Z,3.16
2022-12-23T22:06:57.755Z,3.06
2022-12-23T22:12:00.839Z,3.15
2022-12-23T22:17:03.904Z,3.03
2022-12-23T22:22:06.957Z,3.01
2022-12-23T22:27:09.943Z,2.81
2022-12-23T22:32:12.964Z,2.89
2022-12-23T22:37:16.072Z,2.78
2022-12-23T22:42:19.196Z,2.78
2022-12-23T22:47:22.190Z,2.81
2022-12-23T22:52:25.284Z,2.97
2022-12-23T22:57:28.296Z,2.84
2022-12-23T23:02:31.438Z,2.58
2022-12-23T23:07:34.499Z,2.54
2022-12-23T23:12:37.534Z,2.66
2022-12-23T23:17:40.563Z,2.71
2022-12-23T23:22:52.489Z,2.62
2022-12-23T23:27:55.542Z,2.79
2022-12-23T23:32:58.782Z,3.04
2022-12-23T23:43:35.244Z,2.62
2022-12-23T23:48:38.301Z,2.89
2022-12-23T23:53:41.418Z,2.63
2022-12-23T23:58:44.511Z,2.63
